BENVENUTI AL 154° GRUPPO VIRTUALE
  • Coppia_Tornado_camo
  • linea_volo_F104G
  • cockpit_view
  • Tornado_grey
  • F84F_decollo
  • F84F_Garda
  • F-14B_coppia
  • F-14B_primopiano
  • F-14B_cockpit
  • Benvenuti al 154° Gruppo Virtuale


    Simulazione, Storia e Passione


  • Benvenuti al 154° Gruppo Virtuale


    Simulazione, Storia e Passione


  • Benvenuti al 154° Gruppo Virtuale


    Simulazione, Storia e Passione


  • Benvenuti al 154° Gruppo Virtuale


    Simulazione, Storia e Passione


  • Benvenuti al 154° Gruppo Virtuale


    Simulazione, Storia e Passione


  • Benvenuti al 154° Gruppo Virtuale


    Simulazione, Storia e Passione


  • Benvenuti al 154° Gruppo Virtuale


    Simulazione, Storia e Passione


  • Benvenuti al 154° Gruppo Virtuale


    Simulazione, Storia e Passione


  • Benvenuti al 154° Gruppo Virtuale


    Simulazione, Storia e Passione


METAR & TAF

[Source: ADDS]
METAR
LIPL 271355Z 26002KT CAVOK 11/04 Q1025 RMK SCT SCT120 VIS MIN 9999 WIND THR31 25002KT WIND THR13 17002KT BLU =
LIPL 271400Z 2715/2724 VRB03KT 9999 BKN060 TEMPO 2718/2724 4000 BR SCT060
TAF
LIPL 271400Z 2715/2724 VRB03KT 9999 BKN060 TEMPO 2718/2724 4000 BR SCT060 =

Notice: Undefined index: sun in /web/htdocs/www.154gruppovirtuale.it/home/modules/mod_wx/tmpl/default.php on line 13

Simulation Platform